sensor_id;sensor_type;location;lat;lon;timestamp;P1;durP1;ratioP1;P2;durP2;ratioP2
75303;SDS011;64042;50.916;6.988;2023-02-08T00:00:22;3.87;;;3.50;;
75303;SDS011;64042;50.916;6.988;2023-02-08T00:02:48;3.25;;;2.95;;
75303;SDS011;64042;50.916;6.988;2023-02-08T00:05:13;3.25;;;2.95;;
75303;SDS011;64042;50.916;6.988;2023-02-08T00:07:38;2.97;;;2.50;;
75303;SDS011;64042;50.916;6.988;2023-02-08T00:10:04;3.42;;;2.97;;
75303;SDS011;64042;50.916;6.988;2023-02-08T00:12:30;3.05;;;2.75;;
75303;SDS011;64042;50.916;6.988;2023-02-08T00:14:56;3.45;;;2.58;;
75303;SDS011;64042;50.916;6.988;2023-02-08T00:17:22;4.53;;;2.80;;
75303;SDS011;64042;50.916;6.988;2023-02-08T00:19:47;3.22;;;3.03;;
75303;SDS011;64042;50.916;6.988;2023-02-08T00:22:12;3.17;;;2.83;;
75303;SDS011;64042;50.916;6.988;2023-02-08T00:24:38;4.38;;;2.85;;
75303;SDS011;64042;50.916;6.988;2023-02-08T00:27:03;3.35;;;3.00;;
75303;SDS011;64042;50.916;6.988;2023-02-08T00:29:28;3.50;;;3.20;;
75303;SDS011;64042;50.916;6.988;2023-02-08T00:31:54;3.10;;;2.80;;
75303;SDS011;64042;50.916;6.988;2023-02-08T00:34:19;3.00;;;2.75;;
75303;SDS011;64042;50.916;6.988;2023-02-08T00:36:44;2.47;;;2.20;;
75303;SDS011;64042;50.916;6.988;2023-02-08T00:39:10;4.97;;;2.72;;
75303;SDS011;64042;50.916;6.988;2023-02-08T00:41:35;3.80;;;3.25;;
75303;SDS011;64042;50.916;6.988;2023-02-08T00:44:01;3.33;;;2.80;;
75303;SDS011;64042;50.916;6.988;2023-02-08T00:46:26;3.50;;;3.03;;
75303;SDS011;64042;50.916;6.988;2023-02-08T00:48:51;3.53;;;3.23;;
75303;SDS011;64042;50.916;6.988;2023-02-08T00:51:17;3.70;;;2.85;;
75303;SDS011;64042;50.916;6.988;2023-02-08T00:53:43;3.80;;;2.90;;
75303;SDS011;64042;50.916;6.988;2023-02-08T00:56:09;2.60;;;2.40;;
75303;SDS011;64042;50.916;6.988;2023-02-08T00:58:35;2.97;;;2.58;;
75303;SDS011;64042;50.916;6.988;2023-02-08T01:01:01;3.40;;;3.00;;
75303;SDS011;64042;50.916;6.988;2023-02-08T01:03:27;4.00;;;2.50;;
75303;SDS011;64042;50.916;6.988;2023-02-08T01:05:53;3.10;;;2.83;;
75303;SDS011;64042;50.916;6.988;2023-02-08T01:08:18;4.00;;;3.25;;
75303;SDS011;64042;50.916;6.988;2023-02-08T01:10:45;3.15;;;2.85;;
75303;SDS011;64042;50.916;6.988;2023-02-08T01:13:10;4.15;;;3.75;;
75303;SDS011;64042;50.916;6.988;2023-02-08T01:15:36;4.13;;;3.75;;
75303;SDS011;64042;50.916;6.988;2023-02-08T01:18:01;3.67;;;2.97;;
75303;SDS011;64042;50.916;6.988;2023-02-08T01:20:26;3.13;;;2.75;;
75303;SDS011;64042;50.916;6.988;2023-02-08T01:22:53;3.58;;;3.15;;
75303;SDS011;64042;50.916;6.988;2023-02-08T01:25:18;3.20;;;2.90;;
75303;SDS011;64042;50.916;6.988;2023-02-08T01:27:43;3.60;;;3.30;;
75303;SDS011;64042;50.916;6.988;2023-02-08T01:30:09;2.93;;;2.60;;
75303;SDS011;64042;50.916;6.988;2023-02-08T01:32:35;3.17;;;2.88;;
75303;SDS011;64042;50.916;6.988;2023-02-08T01:35:00;3.05;;;2.75;;
75303;SDS011;64042;50.916;6.988;2023-02-08T01:37:25;3.90;;;3.53;;
75303;SDS011;64042;50.916;6.988;2023-02-08T01:39:50;2.83;;;2.55;;
75303;SDS011;64042;50.916;6.988;2023-02-08T01:42:17;3.38;;;2.95;;
75303;SDS011;64042;50.916;6.988;2023-02-08T01:45:15;4.25;;;2.97;;
75303;SDS011;64042;50.916;6.988;2023-02-08T01:47:48;3.30;;;3.00;;
75303;SDS011;64042;50.916;6.988;2023-02-08T01:50:16;3.20;;;2.70;;
75303;SDS011;64042;50.916;6.988;2023-02-08T01:52:44;3.55;;;2.88;;
75303;SDS011;64042;50.916;6.988;2023-02-08T01:55:11;3.80;;;3.28;;
75303;SDS011;64042;50.916;6.988;2023-02-08T01:57:40;3.17;;;2.83;;
75303;SDS011;64042;50.916;6.988;2023-02-08T02:00:11;3.33;;;3.03;;
75303;SDS011;64042;50.916;6.988;2023-02-08T02:02:39;4.05;;;3.75;;
75303;SDS011;64042;50.916;6.988;2023-02-08T02:05:05;2.50;;;2.30;;
75303;SDS011;64042;50.916;6.988;2023-02-08T02:07:30;3.55;;;3.25;;
75303;SDS011;64042;50.916;6.988;2023-02-08T02:10:30;3.47;;;3.17;;
75303;SDS011;64042;50.916;6.988;2023-02-08T02:12:57;3.20;;;2.90;;
75303;SDS011;64042;50.916;6.988;2023-02-08T02:15:27;2.83;;;2.63;;
75303;SDS011;64042;50.916;6.988;2023-02-08T02:17:52;3.30;;;3.00;;
75303;SDS011;64042;50.916;6.988;2023-02-08T02:35:07;3.55;;;3.25;;
75303;SDS011;64042;50.916;6.988;2023-02-08T02:46:45;3.75;;;3.35;;
75303;SDS011;64042;50.916;6.988;2023-02-08T02:51:56;3.70;;;3.40;;
75303;SDS011;64042;50.916;6.988;2023-02-08T02:54:26;3.35;;;3.05;;
75303;SDS011;64042;50.916;6.988;2023-02-08T02:56:59;3.20;;;2.90;;
75303;SDS011;64042;50.916;6.988;2023-02-08T02:59:26;3.35;;;3.05;;
75303;SDS011;64042;50.916;6.988;2023-02-08T03:01:52;3.13;;;2.83;;
75303;SDS011;64042;50.916;6.988;2023-02-08T03:12:35;2.95;;;2.55;;
75303;SDS011;64042;50.916;6.988;2023-02-08T03:15:14;4.43;;;3.05;;
75303;SDS011;64042;50.916;6.988;2023-02-08T03:21:11;3.28;;;3.00;;
75303;SDS011;64042;50.916;6.988;2023-02-08T03:26:21;3.50;;;3.20;;
75303;SDS011;64042;50.916;6.988;2023-02-08T03:34:05;2.92;;;2.72;;
75303;SDS011;64042;50.916;6.988;2023-02-08T03:36:47;3.00;;;2.80;;
75303;SDS011;64042;50.916;6.988;2023-02-08T03:39:20;2.83;;;2.60;;
75303;SDS011;64042;50.916;6.988;2023-02-08T03:41:48;3.72;;;3.28;;
75303;SDS011;64042;50.916;6.988;2023-02-08T03:44:18;3.67;;;3.35;;
75303;SDS011;64042;50.916;6.988;2023-02-08T03:46:47;3.55;;;3.25;;
75303;SDS011;64042;50.916;6.988;2023-02-08T03:49:18;4.10;;;2.97;;
75303;SDS011;64042;50.916;6.988;2023-02-08T03:51:46;3.17;;;2.88;;
75303;SDS011;64042;50.916;6.988;2023-02-08T03:54:14;3.15;;;2.85;;
75303;SDS011;64042;50.916;6.988;2023-02-08T03:56:47;3.88;;;3.38;;
75303;SDS011;64042;50.916;6.988;2023-02-08T03:59:24;3.15;;;2.88;;
75303;SDS011;64042;50.916;6.988;2023-02-08T04:02:02;3.25;;;2.92;;
75303;SDS011;64042;50.916;6.988;2023-02-08T04:04:38;2.88;;;2.65;;
75303;SDS011;64042;50.916;6.988;2023-02-08T04:07:06;3.35;;;3.05;;
75303;SDS011;64042;50.916;6.988;2023-02-08T04:09:31;2.95;;;2.67;;
75303;SDS011;64042;50.916;6.988;2023-02-08T04:11:57;2.78;;;2.55;;
75303;SDS011;64042;50.916;6.988;2023-02-08T04:14:22;3.00;;;2.70;;
75303;SDS011;64042;50.916;6.988;2023-02-08T04:16:48;2.78;;;2.58;;
75303;SDS011;64042;50.916;6.988;2023-02-08T04:19:13;3.43;;;3.13;;
75303;SDS011;64042;50.916;6.988;2023-02-08T04:21:38;3.27;;;2.97;;
75303;SDS011;64042;50.916;6.988;2023-02-08T04:24:03;3.00;;;2.70;;
75303;SDS011;64042;50.916;6.988;2023-02-08T04:26:29;3.25;;;2.88;;
75303;SDS011;64042;50.916;6.988;2023-02-08T04:28:54;2.77;;;2.57;;
75303;SDS011;64042;50.916;6.988;2023-02-08T04:31:19;3.00;;;2.70;;
75303;SDS011;64042;50.916;6.988;2023-02-08T04:33:45;3.38;;;3.08;;
75303;SDS011;64042;50.916;6.988;2023-02-08T04:36:10;2.63;;;2.40;;
75303;SDS011;64042;50.916;6.988;2023-02-08T04:38:35;2.70;;;2.50;;
75303;SDS011;64042;50.916;6.988;2023-02-08T04:41:01;2.95;;;2.65;;
75303;SDS011;64042;50.916;6.988;2023-02-08T04:43:26;2.80;;;2.60;;
75303;SDS011;64042;50.916;6.988;2023-02-08T04:45:51;3.07;;;2.80;;
75303;SDS011;64042;50.916;6.988;2023-02-08T04:48:17;3.60;;;3.30;;
75303;SDS011;64042;50.916;6.988;2023-02-08T04:50:43;4.18;;;3.88;;
75303;SDS011;64042;50.916;6.988;2023-02-08T04:53:08;3.30;;;2.90;;
75303;SDS011;64042;50.916;6.988;2023-02-08T04:55:34;2.88;;;2.67;;
75303;SDS011;64042;50.916;6.988;2023-02-08T04:57:59;3.23;;;2.93;;
75303;SDS011;64042;50.916;6.988;2023-02-08T05:00:24;3.10;;;2.80;;
75303;SDS011;64042;50.916;6.988;2023-02-08T05:02:51;3.70;;;3.40;;
75303;SDS011;64042;50.916;6.988;2023-02-08T05:05:21;2.92;;;2.72;;
75303;SDS011;64042;50.916;6.988;2023-02-08T05:07:47;3.28;;;2.97;;
75303;SDS011;64042;50.916;6.988;2023-02-08T05:10:12;4.33;;;2.90;;
75303;SDS011;64042;50.916;6.988;2023-02-08T05:12:38;2.83;;;2.45;;
75303;SDS011;64042;50.916;6.988;2023-02-08T05:15:03;4.40;;;4.00;;
75303;SDS011;64042;50.916;6.988;2023-02-08T05:17:29;3.70;;;2.80;;
75303;SDS011;64042;50.916;6.988;2023-02-08T05:19:54;2.73;;;2.40;;
75303;SDS011;64042;50.916;6.988;2023-02-08T05:22:19;3.05;;;2.75;;
75303;SDS011;64042;50.916;6.988;2023-02-08T05:24:45;3.33;;;3.03;;
75303;SDS011;64042;50.916;6.988;2023-02-08T05:27:10;3.53;;;3.23;;
75303;SDS011;64042;50.916;6.988;2023-02-08T05:29:35;2.90;;;2.60;;
75303;SDS011;64042;50.916;6.988;2023-02-08T05:32:00;3.10;;;2.80;;
75303;SDS011;64042;50.916;6.988;2023-02-08T05:34:26;3.47;;;3.17;;
75303;SDS011;64042;50.916;6.988;2023-02-08T05:36:51;3.03;;;2.75;;
75303;SDS011;64042;50.916;6.988;2023-02-08T05:39:17;3.25;;;2.95;;
75303;SDS011;64042;50.916;6.988;2023-02-08T05:41:42;3.23;;;2.63;;
75303;SDS011;64042;50.916;6.988;2023-02-08T05:44:07;2.73;;;2.53;;
75303;SDS011;64042;50.916;6.988;2023-02-08T05:46:33;2.97;;;2.40;;
75303;SDS011;64042;50.916;6.988;2023-02-08T05:48:58;2.78;;;2.47;;
75303;SDS011;64042;50.916;6.988;2023-02-08T05:51:23;3.40;;;3.10;;
75303;SDS011;64042;50.916;6.988;2023-02-08T05:53:49;3.25;;;2.60;;
75303;SDS011;64042;50.916;6.988;2023-02-08T05:56:14;3.05;;;2.72;;
75303;SDS011;64042;50.916;6.988;2023-02-08T05:58:39;3.27;;;2.97;;
75303;SDS011;64042;50.916;6.988;2023-02-08T06:01:08;3.33;;;2.90;;
75303;SDS011;64042;50.916;6.988;2023-02-08T06:03:34;2.90;;;2.58;;
75303;SDS011;64042;50.916;6.988;2023-02-08T06:06:00;2.92;;;2.67;;
75303;SDS011;64042;50.916;6.988;2023-02-08T06:08:25;2.88;;;2.65;;
75303;SDS011;64042;50.916;6.988;2023-02-08T06:10:51;3.03;;;2.75;;
75303;SDS011;64042;50.916;6.988;2023-02-08T06:13:16;3.13;;;2.93;;
75303;SDS011;64042;50.916;6.988;2023-02-08T06:15:41;3.23;;;2.97;;
75303;SDS011;64042;50.916;6.988;2023-02-08T06:18:07;3.47;;;3.17;;
75303;SDS011;64042;50.916;6.988;2023-02-08T06:20:33;3.60;;;3.30;;
75303;SDS011;64042;50.916;6.988;2023-02-08T06:22:58;3.53;;;3.25;;
75303;SDS011;64042;50.916;6.988;2023-02-08T06:25:23;3.25;;;2.95;;
75303;SDS011;64042;50.916;6.988;2023-02-08T06:27:49;3.25;;;2.95;;
75303;SDS011;64042;50.916;6.988;2023-02-08T06:30:14;2.90;;;2.60;;
75303;SDS011;64042;50.916;6.988;2023-02-08T06:32:39;4.07;;;2.80;;
75303;SDS011;64042;50.916;6.988;2023-02-08T06:35:05;3.13;;;2.60;;
75303;SDS011;64042;50.916;6.988;2023-02-08T06:37:30;3.63;;;3.33;;
75303;SDS011;64042;50.916;6.988;2023-02-08T06:39:55;2.77;;;2.57;;
75303;SDS011;64042;50.916;6.988;2023-02-08T06:42:21;3.13;;;2.83;;
75303;SDS011;64042;50.916;6.988;2023-02-08T06:44:46;3.67;;;3.33;;
75303;SDS011;64042;50.916;6.988;2023-02-08T06:47:14;2.90;;;2.67;;
75303;SDS011;64042;50.916;6.988;2023-02-08T06:49:39;2.90;;;2.70;;
75303;SDS011;64042;50.916;6.988;2023-02-08T06:52:05;3.17;;;2.85;;
75303;SDS011;64042;50.916;6.988;2023-02-08T06:54:30;3.65;;;3.35;;
75303;SDS011;64042;50.916;6.988;2023-02-08T06:56:56;3.60;;;3.30;;
75303;SDS011;64042;50.916;6.988;2023-02-08T06:59:21;2.67;;;2.40;;
75303;SDS011;64042;50.916;6.988;2023-02-08T07:01:46;3.93;;;3.63;;
75303;SDS011;64042;50.916;6.988;2023-02-08T07:04:12;4.00;;;2.73;;
75303;SDS011;64042;50.916;6.988;2023-02-08T07:06:37;2.53;;;2.23;;
75303;SDS011;64042;50.916;6.988;2023-02-08T07:09:02;3.65;;;3.03;;
75303;SDS011;64042;50.916;6.988;2023-02-08T07:11:28;2.97;;;2.67;;
75303;SDS011;64042;50.916;6.988;2023-02-08T07:13:54;3.38;;;3.08;;
75303;SDS011;64042;50.916;6.988;2023-02-08T07:16:19;3.88;;;3.58;;
75303;SDS011;64042;50.916;6.988;2023-02-08T07:18:45;3.45;;;3.15;;
75303;SDS011;64042;50.916;6.988;2023-02-08T07:21:11;3.28;;;2.97;;
75303;SDS011;64042;50.916;6.988;2023-02-08T07:23:37;3.85;;;3.55;;
75303;SDS011;64042;50.916;6.988;2023-02-08T07:26:04;3.25;;;2.95;;
75303;SDS011;64042;50.916;6.988;2023-02-08T07:28:31;3.70;;;3.38;;
75303;SDS011;64042;50.916;6.988;2023-02-08T07:30:56;4.20;;;3.80;;
75303;SDS011;64042;50.916;6.988;2023-02-08T07:33:21;3.05;;;2.85;;
75303;SDS011;64042;50.916;6.988;2023-02-08T07:35:47;4.18;;;3.78;;
75303;SDS011;64042;50.916;6.988;2023-02-08T07:38:13;3.30;;;3.00;;
75303;SDS011;64042;50.916;6.988;2023-02-08T07:40:38;3.67;;;3.45;;
75303;SDS011;64042;50.916;6.988;2023-02-08T07:43:03;3.70;;;2.78;;
75303;SDS011;64042;50.916;6.988;2023-02-08T07:45:28;2.57;;;2.37;;
75303;SDS011;64042;50.916;6.988;2023-02-08T07:47:54;3.03;;;2.83;;
75303;SDS011;64042;50.916;6.988;2023-02-08T07:50:19;2.80;;;2.60;;
75303;SDS011;64042;50.916;6.988;2023-02-08T07:52:44;3.65;;;2.95;;
75303;SDS011;64042;50.916;6.988;2023-02-08T07:55:11;3.67;;;2.88;;
75303;SDS011;64042;50.916;6.988;2023-02-08T07:57:41;5.82;;;4.05;;
75303;SDS011;64042;50.916;6.988;2023-02-08T08:00:07;4.80;;;3.58;;
75303;SDS011;64042;50.916;6.988;2023-02-08T08:02:33;4.85;;;4.15;;
75303;SDS011;64042;50.916;6.988;2023-02-08T08:04:58;5.17;;;4.43;;
75303;SDS011;64042;50.916;6.988;2023-02-08T08:07:23;6.23;;;4.27;;
75303;SDS011;64042;50.916;6.988;2023-02-08T08:09:49;4.72;;;3.92;;
75303;SDS011;64042;50.916;6.988;2023-02-08T08:12:14;3.67;;;3.23;;
75303;SDS011;64042;50.916;6.988;2023-02-08T08:14:39;4.53;;;3.33;;
75303;SDS011;64042;50.916;6.988;2023-02-08T08:17:05;4.10;;;3.70;;
75303;SDS011;64042;50.916;6.988;2023-02-08T08:19:30;5.37;;;3.23;;
75303;SDS011;64042;50.916;6.988;2023-02-08T08:21:55;3.40;;;3.20;;
75303;SDS011;64042;50.916;6.988;2023-02-08T08:24:20;3.07;;;2.77;;
75303;SDS011;64042;50.916;6.988;2023-02-08T08:26:46;3.47;;;3.17;;
75303;SDS011;64042;50.916;6.988;2023-02-08T08:29:11;3.92;;;3.60;;
75303;SDS011;64042;50.916;6.988;2023-02-08T08:31:37;3.03;;;2.78;;
75303;SDS011;64042;50.916;6.988;2023-02-08T08:34:02;2.88;;;2.35;;
75303;SDS011;64042;50.916;6.988;2023-02-08T08:36:27;3.30;;;3.00;;
75303;SDS011;64042;50.916;6.988;2023-02-08T08:38:54;2.97;;;2.78;;
75303;SDS011;64042;50.916;6.988;2023-02-08T08:41:19;3.58;;;3.28;;
75303;SDS011;64042;50.916;6.988;2023-02-08T08:43:48;3.20;;;2.78;;
75303;SDS011;64042;50.916;6.988;2023-02-08T08:46:13;3.75;;;3.13;;
75303;SDS011;64042;50.916;6.988;2023-02-08T08:48:40;2.95;;;2.47;;
75303;SDS011;64042;50.916;6.988;2023-02-08T08:51:06;3.42;;;2.95;;
75303;SDS011;64042;50.916;6.988;2023-02-08T08:53:31;3.55;;;3.25;;
75303;SDS011;64042;50.916;6.988;2023-02-08T08:55:57;3.45;;;3.25;;
75303;SDS011;64042;50.916;6.988;2023-02-08T08:58:22;2.73;;;2.53;;
75303;SDS011;64042;50.916;6.988;2023-02-08T09:00:47;2.92;;;2.50;;
75303;SDS011;64042;50.916;6.988;2023-02-08T09:03:13;3.88;;;2.55;;
75303;SDS011;64042;50.916;6.988;2023-02-08T09:05:38;4.23;;;2.70;;
75303;SDS011;64042;50.916;6.988;2023-02-08T09:08:03;2.83;;;2.63;;
75303;SDS011;64042;50.916;6.988;2023-02-08T09:10:29;3.05;;;2.85;;
75303;SDS011;64042;50.916;6.988;2023-02-08T09:12:55;3.00;;;2.70;;
75303;SDS011;64042;50.916;6.988;2023-02-08T09:15:20;2.90;;;2.58;;
75303;SDS011;64042;50.916;6.988;2023-02-08T09:17:45;2.53;;;2.33;;
75303;SDS011;64042;50.916;6.988;2023-02-08T09:20:11;3.10;;;2.80;;
75303;SDS011;64042;50.916;6.988;2023-02-08T09:22:36;3.38;;;2.85;;
75303;SDS011;64042;50.916;6.988;2023-02-08T09:25:01;3.50;;;2.43;;
75303;SDS011;64042;50.916;6.988;2023-02-08T09:27:27;3.22;;;2.92;;
75303;SDS011;64042;50.916;6.988;2023-02-08T09:29:53;3.10;;;2.90;;
75303;SDS011;64042;50.916;6.988;2023-02-08T09:32:18;3.23;;;3.03;;
75303;SDS011;64042;50.916;6.988;2023-02-08T09:34:45;2.67;;;2.47;;
75303;SDS011;64042;50.916;6.988;2023-02-08T09:37:10;2.58;;;2.38;;
75303;SDS011;64042;50.916;6.988;2023-02-08T09:39:36;2.70;;;2.50;;
75303;SDS011;64042;50.916;6.988;2023-02-08T09:44:48;3.08;;;2.88;;
75303;SDS011;64042;50.916;6.988;2023-02-08T09:48:20;2.75;;;2.55;;
75303;SDS011;64042;50.916;6.988;2023-02-08T09:52:54;2.50;;;2.25;;
75303;SDS011;64042;50.916;6.988;2023-02-08T09:58:14;3.40;;;3.10;;
75303;SDS011;64042;50.916;6.988;2023-02-08T10:00:44;4.25;;;2.38;;
75303;SDS011;64042;50.916;6.988;2023-02-08T10:03:54;5.03;;;2.50;;
75303;SDS011;64042;50.916;6.988;2023-02-08T10:06:09;2.75;;;2.55;;
75303;SDS011;64042;50.916;6.988;2023-02-08T10:08:36;3.05;;;2.75;;
75303;SDS011;64042;50.916;6.988;2023-02-08T10:30:27;4.03;;;2.78;;
75303;SDS011;64042;50.916;6.988;2023-02-08T10:33:02;3.47;;;3.17;;
75303;SDS011;64042;50.916;6.988;2023-02-08T10:35:32;2.38;;;2.15;;
75303;SDS011;64042;50.916;6.988;2023-02-08T10:40:43;4.63;;;3.13;;
75303;SDS011;64042;50.916;6.988;2023-02-08T10:43:21;4.05;;;2.95;;
75303;SDS011;64042;50.916;6.988;2023-02-08T10:48:44;6.95;;;3.00;;
75303;SDS011;64042;50.916;6.988;2023-02-08T10:51:14;5.03;;;2.83;;
75303;SDS011;64042;50.916;6.988;2023-02-08T10:53:41;3.38;;;2.67;;
75303;SDS011;64042;50.916;6.988;2023-02-08T10:56:09;6.03;;;3.30;;
75303;SDS011;64042;50.916;6.988;2023-02-08T10:58:46;4.28;;;2.75;;
75303;SDS011;64042;50.916;6.988;2023-02-08T11:01:11;3.88;;;3.17;;
75303;SDS011;64042;50.916;6.988;2023-02-08T11:03:36;4.50;;;2.88;;
75303;SDS011;64042;50.916;6.988;2023-02-08T11:06:03;3.88;;;2.67;;
75303;SDS011;64042;50.916;6.988;2023-02-08T11:08:29;4.22;;;3.13;;
75303;SDS011;64042;50.916;6.988;2023-02-08T11:11:04;5.17;;;2.73;;
75303;SDS011;64042;50.916;6.988;2023-02-08T11:13:52;3.35;;;3.03;;
75303;SDS011;64042;50.916;6.988;2023-02-08T11:16:23;4.90;;;3.50;;
75303;SDS011;64042;50.916;6.988;2023-02-08T11:18:53;3.78;;;2.88;;
75303;SDS011;64042;50.916;6.988;2023-02-08T11:21:26;4.82;;;2.90;;
75303;SDS011;64042;50.916;6.988;2023-02-08T11:23:57;4.40;;;3.28;;
75303;SDS011;64042;50.916;6.988;2023-02-08T11:26:37;3.95;;;3.00;;
75303;SDS011;64042;50.916;6.988;2023-02-08T11:29:11;5.10;;;2.97;;
75303;SDS011;64042;50.916;6.988;2023-02-08T11:31:38;5.78;;;2.83;;
75303;SDS011;64042;50.916;6.988;2023-02-08T11:34:11;3.65;;;2.40;;
75303;SDS011;64042;50.916;6.988;2023-02-08T11:36:42;4.13;;;2.83;;
75303;SDS011;64042;50.916;6.988;2023-02-08T11:39:16;3.75;;;2.92;;
75303;SDS011;64042;50.916;6.988;2023-02-08T11:41:46;4.05;;;2.47;;
75303;SDS011;64042;50.916;6.988;2023-02-08T11:44:15;3.72;;;2.45;;
75303;SDS011;64042;50.916;6.988;2023-02-08T11:46:46;3.72;;;2.60;;
75303;SDS011;64042;50.916;6.988;2023-02-08T11:49:23;5.03;;;3.15;;
75303;SDS011;64042;50.916;6.988;2023-02-08T11:51:50;4.20;;;3.05;;
75303;SDS011;64042;50.916;6.988;2023-02-08T11:54:36;4.68;;;2.63;;
75303;SDS011;64042;50.916;6.988;2023-02-08T11:57:15;3.88;;;3.10;;
75303;SDS011;64042;50.916;6.988;2023-02-08T11:59:40;4.70;;;2.78;;
75303;SDS011;64042;50.916;6.988;2023-02-08T12:02:48;4.38;;;2.83;;
75303;SDS011;64042;50.916;6.988;2023-02-08T12:05:02;4.35;;;2.35;;
75303;SDS011;64042;50.916;6.988;2023-02-08T12:07:43;4.30;;;2.42;;
75303;SDS011;64042;50.916;6.988;2023-02-08T12:15:23;4.20;;;3.42;;
75303;SDS011;64042;50.916;6.988;2023-02-08T12:17:59;2.88;;;2.40;;
75303;SDS011;64042;50.916;6.988;2023-02-08T12:20:43;3.38;;;2.58;;
75303;SDS011;64042;50.916;6.988;2023-02-08T12:31:41;5.22;;;3.17;;
75303;SDS011;64042;50.916;6.988;2023-02-08T12:34:26;3.90;;;2.30;;
75303;SDS011;64042;50.916;6.988;2023-02-08T12:43:09;5.57;;;2.70;;
75303;SDS011;64042;50.916;6.988;2023-02-08T12:51:18;4.28;;;2.28;;
75303;SDS011;64042;50.916;6.988;2023-02-08T12:53:49;4.20;;;2.83;;
75303;SDS011;64042;50.916;6.988;2023-02-08T12:56:19;3.33;;;2.63;;
75303;SDS011;64042;50.916;6.988;2023-02-08T12:58:51;5.28;;;2.88;;
75303;SDS011;64042;50.916;6.988;2023-02-08T13:01:22;6.32;;;2.72;;
75303;SDS011;64042;50.916;6.988;2023-02-08T13:03:58;5.00;;;2.88;;
75303;SDS011;64042;50.916;6.988;2023-02-08T13:06:27;4.90;;;2.90;;
75303;SDS011;64042;50.916;6.988;2023-02-08T13:09:02;4.43;;;2.58;;
75303;SDS011;64042;50.916;6.988;2023-02-08T13:11:39;5.15;;;2.92;;
75303;SDS011;64042;50.916;6.988;2023-02-08T13:14:31;5.60;;;2.80;;
75303;SDS011;64042;50.916;6.988;2023-02-08T13:16:59;4.70;;;2.97;;
75303;SDS011;64042;50.916;6.988;2023-02-08T13:22:36;4.93;;;3.17;;
75303;SDS011;64042;50.916;6.988;2023-02-08T13:25:03;5.25;;;2.80;;
75303;SDS011;64042;50.916;6.988;2023-02-08T13:29:56;4.00;;;2.07;;
75303;SDS011;64042;50.916;6.988;2023-02-08T13:32:24;3.72;;;2.88;;
75303;SDS011;64042;50.916;6.988;2023-02-08T13:37:41;3.30;;;2.35;;
75303;SDS011;64042;50.916;6.988;2023-02-08T13:40:23;4.88;;;3.10;;
75303;SDS011;64042;50.916;6.988;2023-02-08T13:42:57;4.30;;;3.35;;
75303;SDS011;64042;50.916;6.988;2023-02-08T13:45:32;4.53;;;2.78;;
75303;SDS011;64042;50.916;6.988;2023-02-08T13:50:39;3.20;;;2.22;;
75303;SDS011;64042;50.916;6.988;2023-02-08T13:53:15;3.92;;;2.75;;
75303;SDS011;64042;50.916;6.988;2023-02-08T13:55:54;4.72;;;2.70;;
75303;SDS011;64042;50.916;6.988;2023-02-08T13:58:35;3.60;;;2.50;;
75303;SDS011;64042;50.916;6.988;2023-02-08T14:01:15;4.22;;;3.10;;
75303;SDS011;64042;50.916;6.988;2023-02-08T14:03:43;3.83;;;3.25;;
75303;SDS011;64042;50.916;6.988;2023-02-08T14:06:21;4.40;;;2.20;;
75303;SDS011;64042;50.916;6.988;2023-02-08T14:11:34;3.78;;;3.33;;
75303;SDS011;64042;50.916;6.988;2023-02-08T14:14:22;3.90;;;3.05;;
75303;SDS011;64042;50.916;6.988;2023-02-08T14:19:43;4.43;;;2.58;;
75303;SDS011;64042;50.916;6.988;2023-02-08T14:24:37;4.13;;;2.67;;
75303;SDS011;64042;50.916;6.988;2023-02-08T14:27:07;3.55;;;3.22;;
75303;SDS011;64042;50.916;6.988;2023-02-08T14:32:29;2.63;;;2.13;;
75303;SDS011;64042;50.916;6.988;2023-02-08T14:37:37;3.20;;;2.45;;
75303;SDS011;64042;50.916;6.988;2023-02-08T14:42:59;3.47;;;2.30;;
75303;SDS011;64042;50.916;6.988;2023-02-08T14:45:36;3.35;;;2.35;;
75303;SDS011;64042;50.916;6.988;2023-02-08T14:50:38;3.92;;;2.42;;
75303;SDS011;64042;50.916;6.988;2023-02-08T14:55:38;3.53;;;2.17;;
75303;SDS011;64042;50.916;6.988;2023-02-08T14:58:21;2.55;;;1.85;;
75303;SDS011;64042;50.916;6.988;2023-02-08T15:00:50;3.33;;;2.30;;
75303;SDS011;64042;50.916;6.988;2023-02-08T15:03:16;3.28;;;2.13;;
75303;SDS011;64042;50.916;6.988;2023-02-08T15:06:01;3.85;;;2.20;;
75303;SDS011;64042;50.916;6.988;2023-02-08T15:08:35;4.68;;;1.90;;
75303;SDS011;64042;50.916;6.988;2023-02-08T15:11:00;3.40;;;2.92;;
75303;SDS011;64042;50.916;6.988;2023-02-08T15:13:25;3.25;;;2.42;;
75303;SDS011;64042;50.916;6.988;2023-02-08T15:15:55;2.53;;;1.95;;
75303;SDS011;64042;50.916;6.988;2023-02-08T15:18:22;3.15;;;2.50;;
75303;SDS011;64042;50.916;6.988;2023-02-08T15:21:00;3.80;;;2.03;;
75303;SDS011;64042;50.916;6.988;2023-02-08T15:23:27;2.45;;;2.03;;
75303;SDS011;64042;50.916;6.988;2023-02-08T15:26:04;2.72;;;2.50;;
75303;SDS011;64042;50.916;6.988;2023-02-08T15:28:43;3.08;;;2.17;;
75303;SDS011;64042;50.916;6.988;2023-02-08T15:31:08;4.68;;;2.90;;
75303;SDS011;64042;50.916;6.988;2023-02-08T15:33:39;4.47;;;2.33;;
75303;SDS011;64042;50.916;6.988;2023-02-08T15:38:37;3.38;;;2.28;;
75303;SDS011;64042;50.916;6.988;2023-02-08T15:43:37;3.63;;;3.15;;
75303;SDS011;64042;50.916;6.988;2023-02-08T15:46:05;3.80;;;2.25;;
75303;SDS011;64042;50.916;6.988;2023-02-08T15:48:40;3.83;;;2.67;;
75303;SDS011;64042;50.916;6.988;2023-02-08T15:51:07;3.83;;;2.45;;
75303;SDS011;64042;50.916;6.988;2023-02-08T15:53:35;4.60;;;2.28;;
75303;SDS011;64042;50.916;6.988;2023-02-08T15:56:01;4.28;;;2.28;;
75303;SDS011;64042;50.916;6.988;2023-02-08T16:01:03;5.18;;;2.35;;
75303;SDS011;64042;50.916;6.988;2023-02-08T16:03:29;4.25;;;2.47;;
75303;SDS011;64042;50.916;6.988;2023-02-08T16:05:56;3.40;;;2.40;;
75303;SDS011;64042;50.916;6.988;2023-02-08T16:08:24;4.75;;;2.35;;
75303;SDS011;64042;50.916;6.988;2023-02-08T16:10:51;3.92;;;2.25;;
75303;SDS011;64042;50.916;6.988;2023-02-08T16:13:20;5.22;;;2.33;;
75303;SDS011;64042;50.916;6.988;2023-02-08T16:15:49;3.67;;;2.70;;
75303;SDS011;64042;50.916;6.988;2023-02-08T16:21:06;2.25;;;1.95;;
75303;SDS011;64042;50.916;6.988;2023-02-08T16:23:47;4.10;;;2.33;;
75303;SDS011;64042;50.916;6.988;2023-02-08T16:26:17;2.55;;;2.03;;
75303;SDS011;64042;50.916;6.988;2023-02-08T16:28:50;4.50;;;2.03;;
75303;SDS011;64042;50.916;6.988;2023-02-08T16:31:18;2.38;;;1.80;;
75303;SDS011;64042;50.916;6.988;2023-02-08T16:33:44;2.63;;;2.22;;
75303;SDS011;64042;50.916;6.988;2023-02-08T16:36:22;2.50;;;2.30;;
75303;SDS011;64042;50.916;6.988;2023-02-08T16:44:25;2.80;;;2.10;;
75303;SDS011;64042;50.916;6.988;2023-02-08T16:46:54;3.85;;;2.05;;
75303;SDS011;64042;50.916;6.988;2023-02-08T16:49:21;9.45;;;2.88;;
75303;SDS011;64042;50.916;6.988;2023-02-08T16:51:46;9.95;;;2.97;;
75303;SDS011;64042;50.916;6.988;2023-02-08T16:54:12;13.77;;;3.38;;
75303;SDS011;64042;50.916;6.988;2023-02-08T16:56:40;11.77;;;3.63;;
75303;SDS011;64042;50.916;6.988;2023-02-08T16:59:06;12.10;;;3.55;;
75303;SDS011;64042;50.916;6.988;2023-02-08T17:01:32;7.00;;;2.95;;
75303;SDS011;64042;50.916;6.988;2023-02-08T17:03:58;9.15;;;3.67;;
75303;SDS011;64042;50.916;6.988;2023-02-08T17:11:16;7.88;;;2.92;;
75303;SDS011;64042;50.916;6.988;2023-02-08T17:13:42;6.47;;;3.37;;
75303;SDS011;64042;50.916;6.988;2023-02-08T17:16:09;7.23;;;2.67;;
75303;SDS011;64042;50.916;6.988;2023-02-08T17:18:42;4.82;;;2.95;;
75303;SDS011;64042;50.916;6.988;2023-02-08T17:21:07;5.05;;;2.28;;
75303;SDS011;64042;50.916;6.988;2023-02-08T17:23:33;8.65;;;2.60;;
75303;SDS011;64042;50.916;6.988;2023-02-08T17:25:58;4.57;;;2.57;;
75303;SDS011;64042;50.916;6.988;2023-02-08T17:28:23;4.47;;;2.95;;
75303;SDS011;64042;50.916;6.988;2023-02-08T17:30:49;5.60;;;2.53;;
75303;SDS011;64042;50.916;6.988;2023-02-08T17:33:14;4.22;;;2.42;;